sensor_id;sensor_type;location;lat;lon;timestamp;temperature;humidity
10231;DHT22;62604;49.432;8.680;2023-06-01T00:02:14;19.90;18.20
10231;DHT22;62604;49.432;8.680;2023-06-01T00:04:47;19.90;18.10
10231;DHT22;62604;49.432;8.680;2023-06-01T00:07:17;19.80;18.10
10231;DHT22;62604;49.432;8.680;2023-06-01T00:09:45;19.80;18.40
10231;DHT22;62604;49.432;8.680;2023-06-01T00:12:13;19.70;18.50
10231;DHT22;62604;49.432;8.680;2023-06-01T00:14:42;19.60;18.80
10231;DHT22;62604;49.432;8.680;2023-06-01T00:17:13;19.60;18.70
10231;DHT22;62604;49.432;8.680;2023-06-01T00:19:49;19.60;18.80
10231;DHT22;62604;49.432;8.680;2023-06-01T00:22:19;19.50;18.80
10231;DHT22;62604;49.432;8.680;2023-06-01T00:24:50;19.50;18.80
10231;DHT22;62604;49.432;8.680;2023-06-01T00:27:18;19.40;19.00
10231;DHT22;62604;49.432;8.680;2023-06-01T00:29:46;19.30;19.20
10231;DHT22;62604;49.432;8.680;2023-06-01T00:32:15;19.30;19.40
10231;DHT22;62604;49.432;8.680;2023-06-01T00:34:46;19.20;19.60
10231;DHT22;62604;49.432;8.680;2023-06-01T00:37:15;19.10;19.70
10231;DHT22;62604;49.432;8.680;2023-06-01T00:39:44;19.10;20.00
10231;DHT22;62604;49.432;8.680;2023-06-01T00:42:14;19.00;19.80
10231;DHT22;62604;49.432;8.680;2023-06-01T00:44:42;18.90;20.40
10231;DHT22;62604;49.432;8.680;2023-06-01T00:47:12;18.90;20.30
10231;DHT22;62604;49.432;8.680;2023-06-01T00:49:39;18.90;20.40
10231;DHT22;62604;49.432;8.680;2023-06-01T00:52:15;18.80;20.50
10231;DHT22;62604;49.432;8.680;2023-06-01T00:54:42;18.80;20.50
10231;DHT22;62604;49.432;8.680;2023-06-01T00:57:13;18.90;20.30
10231;DHT22;62604;49.432;8.680;2023-06-01T00:59:41;18.80;20.10
10231;DHT22;62604;49.432;8.680;2023-06-01T01:02:14;18.90;20.10
10231;DHT22;62604;49.432;8.680;2023-06-01T01:04:45;18.80;20.10
10231;DHT22;62604;49.432;8.680;2023-06-01T01:07:25;18.70;20.20
10231;DHT22;62604;49.432;8.680;2023-06-01T01:09:56;18.70;20.40
10231;DHT22;62604;49.432;8.680;2023-06-01T01:12:31;18.60;20.50
10231;DHT22;62604;49.432;8.680;2023-06-01T01:15:14;18.60;20.40
10231;DHT22;62604;49.432;8.680;2023-06-01T01:17:51;18.60;20.80
10231;DHT22;62604;49.432;8.680;2023-06-01T01:20:29;18.60;20.80
10231;DHT22;62604;49.432;8.680;2023-06-01T01:23:19;18.50;20.60
10231;DHT22;62604;49.432;8.680;2023-06-01T01:26:20;18.60;20.50
10231;DHT22;62604;49.432;8.680;2023-06-01T01:28:54;18.50;20.40
10231;DHT22;62604;49.432;8.680;2023-06-01T01:31:26;18.50;20.50
10231;DHT22;62604;49.432;8.680;2023-06-01T01:33:57;18.50;20.40
10231;DHT22;62604;49.432;8.680;2023-06-01T01:36:26;18.40;20.70
10231;DHT22;62604;49.432;8.680;2023-06-01T01:38:54;18.50;20.30
10231;DHT22;62604;49.432;8.680;2023-06-01T01:41:24;18.50;20.20
10231;DHT22;62604;49.432;8.680;2023-06-01T01:43:56;18.50;20.10
10231;DHT22;62604;49.432;8.680;2023-06-01T01:46:27;18.50;20.20
10231;DHT22;62604;49.432;8.680;2023-06-01T01:49:00;18.50;20.40
10231;DHT22;62604;49.432;8.680;2023-06-01T01:51:40;18.50;19.90
10231;DHT22;62604;49.432;8.680;2023-06-01T01:54:14;18.50;20.30
10231;DHT22;62604;49.432;8.680;2023-06-01T01:56:45;18.60;19.70
10231;DHT22;62604;49.432;8.680;2023-06-01T01:59:21;18.50;19.60
10231;DHT22;62604;49.432;8.680;2023-06-01T02:01:50;18.50;19.70
10231;DHT22;62604;49.432;8.680;2023-06-01T02:04:18;18.50;20.60
10231;DHT22;62604;49.432;8.680;2023-06-01T02:06:46;18.40;20.10
10231;DHT22;62604;49.432;8.680;2023-06-01T02:09:17;18.30;20.50
10231;DHT22;62604;49.432;8.680;2023-06-01T02:11:45;18.20;20.80
10231;DHT22;62604;49.432;8.680;2023-06-01T02:14:16;18.20;21.10
10231;DHT22;62604;49.432;8.680;2023-06-01T02:16:45;18.00;21.70
10231;DHT22;62604;49.432;8.680;2023-06-01T02:19:15;17.90;23.20
10231;DHT22;62604;49.432;8.680;2023-06-01T02:21:45;17.60;24.50
10231;DHT22;62604;49.432;8.680;2023-06-01T02:24:20;17.20;25.40
10231;DHT22;62604;49.432;8.680;2023-06-01T02:26:47;16.80;26.30
10231;DHT22;62604;49.432;8.680;2023-06-01T02:29:24;16.60;27.30
10231;DHT22;62604;49.432;8.680;2023-06-01T02:31:51;16.30;28.00
10231;DHT22;62604;49.432;8.680;2023-06-01T02:34:19;16.10;28.40
10231;DHT22;62604;49.432;8.680;2023-06-01T02:36:48;16.10;29.90
10231;DHT22;62604;49.432;8.680;2023-06-01T02:39:23;15.90;30.00
10231;DHT22;62604;49.432;8.680;2023-06-01T02:41:51;15.80;31.80
10231;DHT22;62604;49.432;8.680;2023-06-01T02:44:23;15.70;32.30
10231;DHT22;62604;49.432;8.680;2023-06-01T02:46:50;15.60;33.30
10231;DHT22;62604;49.432;8.680;2023-06-01T02:49:19;15.60;34.40
10231;DHT22;62604;49.432;8.680;2023-06-01T02:51:46;15.40;34.30
10231;DHT22;62604;49.432;8.680;2023-06-01T02:54:17;15.30;35.20
10231;DHT22;62604;49.432;8.680;2023-06-01T02:56:50;15.20;36.90
10231;DHT22;62604;49.432;8.680;2023-06-01T02:59:19;15.10;38.40
10231;DHT22;62604;49.432;8.680;2023-06-01T03:01:53;15.00;38.50
10231;DHT22;62604;49.432;8.680;2023-06-01T03:04:21;15.00;39.10
10231;DHT22;62604;49.432;8.680;2023-06-01T03:06:48;14.90;40.60
10231;DHT22;62604;49.432;8.680;2023-06-01T03:09:16;14.90;40.80
10231;DHT22;62604;49.432;8.680;2023-06-01T03:11:46;14.80;41.70
10231;DHT22;62604;49.432;8.680;2023-06-01T03:14:17;14.80;43.50
10231;DHT22;62604;49.432;8.680;2023-06-01T03:16:47;14.70;44.70
10231;DHT22;62604;49.432;8.680;2023-06-01T03:19:20;14.60;45.30
10231;DHT22;62604;49.432;8.680;2023-06-01T03:21:48;14.60;45.20
10231;DHT22;62604;49.432;8.680;2023-06-01T03:24:17;14.50;46.10
10231;DHT22;62604;49.432;8.680;2023-06-01T03:26:44;14.50;47.50
10231;DHT22;62604;49.432;8.680;2023-06-01T03:29:12;14.50;48.50
10231;DHT22;62604;49.432;8.680;2023-06-01T03:31:42;14.50;50.30
10231;DHT22;62604;49.432;8.680;2023-06-01T03:34:12;14.40;50.20
10231;DHT22;62604;49.432;8.680;2023-06-01T03:36:46;14.30;52.90
10231;DHT22;62604;49.432;8.680;2023-06-01T03:39:18;14.30;52.80
10231;DHT22;62604;49.432;8.680;2023-06-01T03:41:46;14.30;54.70
10231;DHT22;62604;49.432;8.680;2023-06-01T03:44:17;14.30;55.50
10231;DHT22;62604;49.432;8.680;2023-06-01T03:46:46;14.30;55.60
10231;DHT22;62604;49.432;8.680;2023-06-01T03:49:14;14.20;55.60
10231;DHT22;62604;49.432;8.680;2023-06-01T03:51:48;14.20;58.40
10231;DHT22;62604;49.432;8.680;2023-06-01T03:54:17;14.20;56.60
10231;DHT22;62604;49.432;8.680;2023-06-01T03:56:44;14.30;56.40
10231;DHT22;62604;49.432;8.680;2023-06-01T03:59:14;14.30;56.70
10231;DHT22;62604;49.432;8.680;2023-06-01T04:01:44;14.30;58.00
10231;DHT22;62604;49.432;8.680;2023-06-01T04:04:17;14.30;59.30
10231;DHT22;62604;49.432;8.680;2023-06-01T04:07:03;14.20;61.20
10231;DHT22;62604;49.432;8.680;2023-06-01T04:09:33;14.20;63.00
10231;DHT22;62604;49.432;8.680;2023-06-01T04:12:00;14.20;62.60
10231;DHT22;62604;49.432;8.680;2023-06-01T04:14:29;14.20;66.80
10231;DHT22;62604;49.432;8.680;2023-06-01T04:16:58;14.10;67.40
10231;DHT22;62604;49.432;8.680;2023-06-01T04:19:27;14.20;64.80
10231;DHT22;62604;49.432;8.680;2023-06-01T04:21:57;14.40;65.80
10231;DHT22;62604;49.432;8.680;2023-06-01T04:24:28;14.40;69.00
10231;DHT22;62604;49.432;8.680;2023-06-01T04:26:55;14.30;69.10
10231;DHT22;62604;49.432;8.680;2023-06-01T04:29:25;14.20;73.50
10231;DHT22;62604;49.432;8.680;2023-06-01T04:31:52;14.20;71.90
10231;DHT22;62604;49.432;8.680;2023-06-01T04:34:21;14.20;72.90
10231;DHT22;62604;49.432;8.680;2023-06-01T04:36:53;14.20;77.50
10231;DHT22;62604;49.432;8.680;2023-06-01T04:39:26;14.20;78.40
10231;DHT22;62604;49.432;8.680;2023-06-01T04:41:56;14.20;78.80
10231;DHT22;62604;49.432;8.680;2023-06-01T04:44:24;14.20;76.80
10231;DHT22;62604;49.432;8.680;2023-06-01T04:46:51;14.10;73.00
10231;DHT22;62604;49.432;8.680;2023-06-01T04:49:22;14.20;73.70
10231;DHT22;62604;49.432;8.680;2023-06-01T04:51:51;14.20;73.80
10231;DHT22;62604;49.432;8.680;2023-06-01T04:54:19;14.30;74.00
10231;DHT22;62604;49.432;8.680;2023-06-01T04:56:50;14.40;73.10
10231;DHT22;62604;49.432;8.680;2023-06-01T04:59:20;14.50;75.60
10231;DHT22;62604;49.432;8.680;2023-06-01T05:01:47;14.60;72.00
10231;DHT22;62604;49.432;8.680;2023-06-01T05:04:16;14.70;71.10
10231;DHT22;62604;49.432;8.680;2023-06-01T05:06:45;14.80;70.90
10231;DHT22;62604;49.432;8.680;2023-06-01T05:09:13;14.90;75.90
10231;DHT22;62604;49.432;8.680;2023-06-01T05:11:40;14.90;79.00
10231;DHT22;62604;49.432;8.680;2023-06-01T05:14:10;14.90;78.80
10231;DHT22;62604;49.432;8.680;2023-06-01T05:16:38;15.00;78.20
10231;DHT22;62604;49.432;8.680;2023-06-01T05:19:08;15.00;79.90
10231;DHT22;62604;49.432;8.680;2023-06-01T05:21:37;15.10;76.90
10231;DHT22;62604;49.432;8.680;2023-06-01T05:24:05;15.10;73.20
10231;DHT22;62604;49.432;8.680;2023-06-01T05:26:34;15.20;72.10
10231;DHT22;62604;49.432;8.680;2023-06-01T05:29:02;15.30;71.30
10231;DHT22;62604;49.432;8.680;2023-06-01T05:31:31;15.40;70.00
10231;DHT22;62604;49.432;8.680;2023-06-01T05:33:59;15.50;73.30
10231;DHT22;62604;49.432;8.680;2023-06-01T05:36:26;15.60;72.20
10231;DHT22;62604;49.432;8.680;2023-06-01T05:38:55;15.90;71.10
10231;DHT22;62604;49.432;8.680;2023-06-01T05:41:23;16.00;68.80
10231;DHT22;62604;49.432;8.680;2023-06-01T05:43:53;16.20;69.60
10231;DHT22;62604;49.432;8.680;2023-06-01T05:46:22;16.30;69.10
10231;DHT22;62604;49.432;8.680;2023-06-01T05:48:51;16.50;68.00
10231;DHT22;62604;49.432;8.680;2023-06-01T05:51:19;16.70;67.00
10231;DHT22;62604;49.432;8.680;2023-06-01T05:53:46;16.80;65.50
10231;DHT22;62604;49.432;8.680;2023-06-01T05:56:15;17.00;64.30
10231;DHT22;62604;49.432;8.680;2023-06-01T05:58:43;17.20;62.50
10231;DHT22;62604;49.432;8.680;2023-06-01T06:01:11;17.40;61.00
10231;DHT22;62604;49.432;8.680;2023-06-01T06:03:38;17.50;60.00
10231;DHT22;62604;49.432;8.680;2023-06-01T06:06:08;17.70;60.50
10231;DHT22;62604;49.432;8.680;2023-06-01T06:08:35;17.90;57.70
10231;DHT22;62604;49.432;8.680;2023-06-01T06:11:03;17.80;57.60
10231;DHT22;62604;49.432;8.680;2023-06-01T06:13:30;18.00;56.30
10231;DHT22;62604;49.432;8.680;2023-06-01T06:15:58;18.30;54.60
10231;DHT22;62604;49.432;8.680;2023-06-01T06:18:25;18.50;53.40
10231;DHT22;62604;49.432;8.680;2023-06-01T06:20:53;18.80;51.60
10231;DHT22;62604;49.432;8.680;2023-06-01T06:23:22;18.90;49.80
10231;DHT22;62604;49.432;8.680;2023-06-01T06:25:50;18.60;48.80
10231;DHT22;62604;49.432;8.680;2023-06-01T06:28:18;18.80;49.70
10231;DHT22;62604;49.432;8.680;2023-06-01T06:30:50;19.10;49.50
10231;DHT22;62604;49.432;8.680;2023-06-01T06:33:33;19.20;48.50
10231;DHT22;62604;49.432;8.680;2023-06-01T06:36:02;19.40;48.60
10231;DHT22;62604;49.432;8.680;2023-06-01T06:38:33;19.60;49.60
10231;DHT22;62604;49.432;8.680;2023-06-01T06:41:02;20.10;47.00
10231;DHT22;62604;49.432;8.680;2023-06-01T06:43:29;20.10;47.00
10231;DHT22;62604;49.432;8.680;2023-06-01T06:45:57;20.50;47.60
10231;DHT22;62604;49.432;8.680;2023-06-01T06:48:25;20.90;46.50
10231;DHT22;62604;49.432;8.680;2023-06-01T06:50:55;21.20;44.60
10231;DHT22;62604;49.432;8.680;2023-06-01T06:53:25;21.50;45.00
10231;DHT22;62604;49.432;8.680;2023-06-01T06:55:58;21.20;41.30
10231;DHT22;62604;49.432;8.680;2023-06-01T06:58:27;21.30;42.90
10231;DHT22;62604;49.432;8.680;2023-06-01T07:00:54;21.60;42.30
10231;DHT22;62604;49.432;8.680;2023-06-01T07:03:22;22.00;43.20
10231;DHT22;62604;49.432;8.680;2023-06-01T07:05:49;22.40;40.60
10231;DHT22;62604;49.432;8.680;2023-06-01T07:08:17;22.80;39.20
10231;DHT22;62604;49.432;8.680;2023-06-01T07:10:45;22.40;38.30
10231;DHT22;62604;49.432;8.680;2023-06-01T07:13:15;24.10;35.70
10231;DHT22;62604;49.432;8.680;2023-06-01T07:15:42;25.80;31.00
10231;DHT22;62604;49.432;8.680;2023-06-01T07:18:09;27.30;26.80
10231;DHT22;62604;49.432;8.680;2023-06-01T07:20:36;27.00;23.40
10231;DHT22;62604;49.432;8.680;2023-06-01T07:23:03;28.20;22.70
10231;DHT22;62604;49.432;8.680;2023-06-01T07:25:30;28.80;21.10
10231;DHT22;62604;49.432;8.680;2023-06-01T07:27:57;29.10;19.70
10231;DHT22;62604;49.432;8.680;2023-06-01T07:30:25;29.30;18.40
10231;DHT22;62604;49.432;8.680;2023-06-01T07:32:52;29.80;17.00
10231;DHT22;62604;49.432;8.680;2023-06-01T07:35:19;30.10;16.20
10231;DHT22;62604;49.432;8.680;2023-06-01T07:37:45;30.50;15.70
10231;DHT22;62604;49.432;8.680;2023-06-01T07:40:12;30.70;15.40
10231;DHT22;62604;49.432;8.680;2023-06-01T07:42:39;31.10;15.30
10231;DHT22;62604;49.432;8.680;2023-06-01T07:45:07;29.60;15.60
10231;DHT22;62604;49.432;8.680;2023-06-01T07:47:36;29.60;14.00
10231;DHT22;62604;49.432;8.680;2023-06-01T07:50:03;29.50;16.40
10231;DHT22;62604;49.432;8.680;2023-06-01T07:52:30;30.70;14.60
10231;DHT22;62604;49.432;8.680;2023-06-01T07:54:57;31.50;14.20
10231;DHT22;62604;49.432;8.680;2023-06-01T07:57:24;31.30;12.80
10231;DHT22;62604;49.432;8.680;2023-06-01T07:59:51;31.60;11.60
10231;DHT22;62604;49.432;8.680;2023-06-01T08:02:18;30.50;13.90
10231;DHT22;62604;49.432;8.680;2023-06-01T08:04:47;30.90;12.90
10231;DHT22;62604;49.432;8.680;2023-06-01T08:07:14;30.70;13.50
10231;DHT22;62604;49.432;8.680;2023-06-01T08:09:42;31.10;14.30
10231;DHT22;62604;49.432;8.680;2023-06-01T08:12:09;31.80;12.00
10231;DHT22;62604;49.432;8.680;2023-06-01T08:14:37;31.20;12.30
10231;DHT22;62604;49.432;8.680;2023-06-01T08:17:06;29.70;13.60
10231;DHT22;62604;49.432;8.680;2023-06-01T08:19:34;29.60;15.40
10231;DHT22;62604;49.432;8.680;2023-06-01T08:22:03;30.20;15.60
10231;DHT22;62604;49.432;8.680;2023-06-01T08:24:31;30.80;13.30
10231;DHT22;62604;49.432;8.680;2023-06-01T08:26:58;30.50;13.30
10231;DHT22;62604;49.432;8.680;2023-06-01T08:29:26;30.70;14.70
10231;DHT22;62604;49.432;8.680;2023-06-01T08:31:53;31.60;14.20
10231;DHT22;62604;49.432;8.680;2023-06-01T08:34:24;32.40;11.90
10231;DHT22;62604;49.432;8.680;2023-06-01T08:36:51;31.80;12.10
10231;DHT22;62604;49.432;8.680;2023-06-01T08:39:23;32.60;11.10
10231;DHT22;62604;49.432;8.680;2023-06-01T08:41:58;31.30;11.60
10231;DHT22;62604;49.432;8.680;2023-06-01T08:44:35;30.00;12.30
10231;DHT22;62604;49.432;8.680;2023-06-01T08:47:04;29.10;12.90
10231;DHT22;62604;49.432;8.680;2023-06-01T08:49:31;27.30;15.10
10231;DHT22;62604;49.432;8.680;2023-06-01T08:52:00;28.80;16.10
10231;DHT22;62604;49.432;8.680;2023-06-01T08:54:30;30.60;14.40
10231;DHT22;62604;49.432;8.680;2023-06-01T08:56:59;30.40;13.30
10231;DHT22;62604;49.432;8.680;2023-06-01T08:59:28;32.00;12.30
10231;DHT22;62604;49.432;8.680;2023-06-01T09:01:57;32.20;9.20
10231;DHT22;62604;49.432;8.680;2023-06-01T09:04:25;30.80;10.00
10231;DHT22;62604;49.432;8.680;2023-06-01T09:06:52;30.60;12.70
10231;DHT22;62604;49.432;8.680;2023-06-01T09:09:19;30.50;12.20
10231;DHT22;62604;49.432;8.680;2023-06-01T09:11:47;31.60;12.40
10231;DHT22;62604;49.432;8.680;2023-06-01T09:14:24;31.80;11.30
10231;DHT22;62604;49.432;8.680;2023-06-01T09:16:55;33.10;11.00
10231;DHT22;62604;49.432;8.680;2023-06-01T09:19:24;33.90;9.50
10231;DHT22;62604;49.432;8.680;2023-06-01T09:21:57;34.40;8.10
10231;DHT22;62604;49.432;8.680;2023-06-01T09:24:25;34.30;8.10
10231;DHT22;62604;49.432;8.680;2023-06-01T09:26:59;35.20;7.80
10231;DHT22;62604;49.432;8.680;2023-06-01T09:29:26;34.30;6.90
10231;DHT22;62604;49.432;8.680;2023-06-01T09:31:53;35.00;7.80
10231;DHT22;62604;49.432;8.680;2023-06-01T09:34:21;33.90;6.30
10231;DHT22;62604;49.432;8.680;2023-06-01T09:36:49;32.90;7.70
10231;DHT22;62604;49.432;8.680;2023-06-01T09:39:18;31.90;9.00
10231;DHT22;62604;49.432;8.680;2023-06-01T09:41:49;32.80;9.50
10231;DHT22;62604;49.432;8.680;2023-06-01T09:44:27;34.20;8.30
10231;DHT22;62604;49.432;8.680;2023-06-01T09:46:55;32.60;8.90
10231;DHT22;62604;49.432;8.680;2023-06-01T09:49:24;33.70;8.90
10231;DHT22;62604;49.432;8.680;2023-06-01T09:51:53;35.00;7.80
10231;DHT22;62604;49.432;8.680;2023-06-01T09:54:25;34.90;5.80
10231;DHT22;62604;49.432;8.680;2023-06-01T09:56:52;35.60;5.60
10231;DHT22;62604;49.432;8.680;2023-06-01T09:59:20;34.90;6.40
10231;DHT22;62604;49.432;8.680;2023-06-01T10:01:51;35.40;6.00
10231;DHT22;62604;49.432;8.680;2023-06-01T10:04:21;35.30;5.50
10231;DHT22;62604;49.432;8.680;2023-06-01T10:06:49;35.80;4.80
10231;DHT22;62604;49.432;8.680;2023-06-01T10:09:18;35.80;4.30
10231;DHT22;62604;49.432;8.680;2023-06-01T10:11:47;36.20;3.80
10231;DHT22;62604;49.432;8.680;2023-06-01T10:14:14;36.50;4.40
10231;DHT22;62604;49.432;8.680;2023-06-01T10:16:42;34.90;5.20
10231;DHT22;62604;49.432;8.680;2023-06-01T10:19:11;34.40;3.10
10231;DHT22;62604;49.432;8.680;2023-06-01T10:21:38;34.40;4.70
10231;DHT22;62604;49.432;8.680;2023-06-01T10:24:08;35.20;4.80
10231;DHT22;62604;49.432;8.680;2023-06-01T10:26:39;34.80;4.60
10231;DHT22;62604;49.432;8.680;2023-06-01T10:29:09;35.50;3.80
10231;DHT22;62604;49.432;8.680;2023-06-01T10:31:37;35.80;2.60
10231;DHT22;62604;49.432;8.680;2023-06-01T10:34:06;33.60;3.00
10231;DHT22;62604;49.432;8.680;2023-06-01T10:37:13;34.90;3.40
10231;DHT22;62604;49.432;8.680;2023-06-01T10:39:40;35.60;2.70
10231;DHT22;62604;49.432;8.680;2023-06-01T10:42:37;35.90;1.10
10231;DHT22;62604;49.432;8.680;2023-06-01T10:45:06;35.70;1.70
10231;DHT22;62604;49.432;8.680;2023-06-01T10:47:46;34.40;3.30
10231;DHT22;62604;49.432;8.680;2023-06-01T10:50:17;35.50;2.50
10231;DHT22;62604;49.432;8.680;2023-06-01T10:52:46;35.20;1.70
10231;DHT22;62604;49.432;8.680;2023-06-01T10:55:22;35.80;1.50
10231;DHT22;62604;49.432;8.680;2023-06-01T10:57:49;35.40;1.00
10231;DHT22;62604;49.432;8.680;2023-06-01T11:00:19;35.90;1.60
10231;DHT22;62604;49.432;8.680;2023-06-01T11:02:56;35.70;1.60
10231;DHT22;62604;49.432;8.680;2023-06-01T11:05:43;35.10;1.80
10231;DHT22;62604;49.432;8.680;2023-06-01T11:08:53;35.50;2.30
10231;DHT22;62604;49.432;8.680;2023-06-01T11:11:21;34.20;1.00
10231;DHT22;62604;49.432;8.680;2023-06-01T11:14:08;35.40;2.20
10231;DHT22;62604;49.432;8.680;2023-06-01T11:16:36;35.90;1.00
10231;DHT22;62604;49.432;8.680;2023-06-01T11:19:05;35.80;1.00
10231;DHT22;62604;49.432;8.680;2023-06-01T11:21:34;35.60;2.50
10231;DHT22;62604;49.432;8.680;2023-06-01T11:24:09;35.00;2.60
10231;DHT22;62604;49.432;8.680;2023-06-01T11:26:41;33.70;3.50
10231;DHT22;62604;49.432;8.680;2023-06-01T11:29:13;33.10;3.30
10231;DHT22;62604;49.432;8.680;2023-06-01T11:31:43;33.70;4.40
10231;DHT22;62604;49.432;8.680;2023-06-01T11:34:12;34.20;3.60
10231;DHT22;62604;49.432;8.680;2023-06-01T11:36:41;34.80;2.90
10231;DHT22;62604;49.432;8.680;2023-06-01T11:39:21;34.80;3.50
10231;DHT22;62604;49.432;8.680;2023-06-01T11:41:52;33.00;5.50
10231;DHT22;62604;49.432;8.680;2023-06-01T11:44:30;33.60;5.60
10231;DHT22;62604;49.432;8.680;2023-06-01T11:46:57;33.50;4.60
10231;DHT22;62604;49.432;8.680;2023-06-01T11:49:26;34.50;4.30
10231;DHT22;62604;49.432;8.680;2023-06-01T11:51:54;34.10;4.80
10231;DHT22;62604;49.432;8.680;2023-06-01T11:54:27;34.30;3.80
10231;DHT22;62604;49.432;8.680;2023-06-01T11:56:55;34.80;3.40
10231;DHT22;62604;49.432;8.680;2023-06-01T11:59:22;32.90;3.60
10231;DHT22;62604;49.432;8.680;2023-06-01T12:01:50;33.40;5.40
10231;DHT22;62604;49.432;8.680;2023-06-01T12:04:20;34.10;4.20
10231;DHT22;62604;49.432;8.680;2023-06-01T12:06:47;34.80;4.60
10231;DHT22;62604;49.432;8.680;2023-06-01T12:09:15;32.50;3.70
10231;DHT22;62604;49.432;8.680;2023-06-01T12:11:44;32.30;5.20
10231;DHT22;62604;49.432;8.680;2023-06-01T12:14:12;32.60;6.90
10231;DHT22;62604;49.432;8.680;2023-06-01T12:16:54;33.80;4.60
10231;DHT22;62604;49.432;8.680;2023-06-01T12:19:22;34.00;4.80
10231;DHT22;62604;49.432;8.680;2023-06-01T12:21:49;33.70;3.30
10231;DHT22;62604;49.432;8.680;2023-06-01T12:24:18;33.60;4.70
10231;DHT22;62604;49.432;8.680;2023-06-01T12:26:46;33.10;5.60
10231;DHT22;62604;49.432;8.680;2023-06-01T12:29:14;33.70;5.80
10231;DHT22;62604;49.432;8.680;2023-06-01T12:31:52;34.50;5.10
10231;DHT22;62604;49.432;8.680;2023-06-01T12:34:20;34.80;3.80
10231;DHT22;62604;49.432;8.680;2023-06-01T12:36:47;34.20;3.10
10231;DHT22;62604;49.432;8.680;2023-06-01T12:39:14;33.50;2.20
10231;DHT22;62604;49.432;8.680;2023-06-01T12:41:49;33.50;3.90
10231;DHT22;62604;49.432;8.680;2023-06-01T12:44:20;34.10;4.10
10231;DHT22;62604;49.432;8.680;2023-06-01T12:49:22;34.00;4.10
10231;DHT22;62604;49.432;8.680;2023-06-01T12:51:49;34.10;3.50
10231;DHT22;62604;49.432;8.680;2023-06-01T12:54:16;34.40;2.60
10231;DHT22;62604;49.432;8.680;2023-06-01T12:56:44;34.70;3.10
10231;DHT22;62604;49.432;8.680;2023-06-01T12:59:12;33.20;3.90
10231;DHT22;62604;49.432;8.680;2023-06-01T13:01:39;32.70;5.30
10231;DHT22;62604;49.432;8.680;2023-06-01T13:04:06;33.70;3.70
10231;DHT22;62604;49.432;8.680;2023-06-01T13:06:34;34.10;3.40
10231;DHT22;62604;49.432;8.680;2023-06-01T13:09:01;34.20;3.10
10231;DHT22;62604;49.432;8.680;2023-06-01T13:11:28;34.60;2.90
10231;DHT22;62604;49.432;8.680;2023-06-01T13:13:55;34.00;4.20
10231;DHT22;62604;49.432;8.680;2023-06-01T13:16:23;32.60;2.50
10231;DHT22;62604;49.432;8.680;2023-06-01T13:18:50;31.20;4.00
10231;DHT22;62604;49.432;8.680;2023-06-01T13:21:17;31.20;4.70
10231;DHT22;62604;49.432;8.680;2023-06-01T13:23:44;32.10;6.90
10231;DHT22;62604;49.432;8.680;2023-06-01T13:26:12;32.10;6.10
10231;DHT22;62604;49.432;8.680;2023-06-01T13:28:40;32.70;5.10
10231;DHT22;62604;49.432;8.680;2023-06-01T13:31:07;33.40;4.50
10231;DHT22;62604;49.432;8.680;2023-06-01T13:33:36;32.70;4.70
10231;DHT22;62604;49.432;8.680;2023-06-01T13:36:03;31.10;3.00
10231;DHT22;62604;49.432;8.680;2023-06-01T13:38:31;30.80;5.30
10231;DHT22;62604;49.432;8.680;2023-06-01T13:40:57;31.80;6.60
10231;DHT22;62604;49.432;8.680;2023-06-01T13:43:24;32.80;4.80
10231;DHT22;62604;49.432;8.680;2023-06-01T13:45:52;32.70;4.60
10231;DHT22;62604;49.432;8.680;2023-06-01T13:48:19;33.30;4.60
10231;DHT22;62604;49.432;8.680;2023-06-01T13:50:47;32.60;3.40
10231;DHT22;62604;49.432;8.680;2023-06-01T13:53:14;32.80;4.20
10231;DHT22;62604;49.432;8.680;2023-06-01T13:55:41;33.10;5.00
10231;DHT22;62604;49.432;8.680;2023-06-01T13:58:08;32.50;4.20
10231;DHT22;62604;49.432;8.680;2023-06-01T14:00:35;32.80;3.90
10231;DHT22;62604;49.432;8.680;2023-06-01T14:03:02;32.90;4.10
10231;DHT22;62604;49.432;8.680;2023-06-01T14:05:29;32.80;4.30
10231;DHT22;62604;49.432;8.680;2023-06-01T14:07:57;33.20;4.30
10231;DHT22;62604;49.432;8.680;2023-06-01T14:10:24;33.40;4.50
10231;DHT22;62604;49.432;8.680;2023-06-01T14:12:51;33.40;3.80
10231;DHT22;62604;49.432;8.680;2023-06-01T14:15:18;32.90;4.10
10231;DHT22;62604;49.432;8.680;2023-06-01T14:17:45;32.50;3.60
10231;DHT22;62604;49.432;8.680;2023-06-01T14:20:15;32.90;5.10
10231;DHT22;62604;49.432;8.680;2023-06-01T14:22:44;31.80;4.40
10231;DHT22;62604;49.432;8.680;2023-06-01T14:25:12;31.80;5.80
10231;DHT22;62604;49.432;8.680;2023-06-01T14:27:40;31.10;4.80
10231;DHT22;62604;49.432;8.680;2023-06-01T14:30:07;30.70;5.70
10231;DHT22;62604;49.432;8.680;2023-06-01T14:32:34;30.50;6.10
10231;DHT22;62604;49.432;8.680;2023-06-01T14:35:01;31.10;6.40
10231;DHT22;62604;49.432;8.680;2023-06-01T14:37:28;31.10;6.30
10231;DHT22;62604;49.432;8.680;2023-06-01T14:39:57;29.80;5.10
10231;DHT22;62604;49.432;8.680;2023-06-01T14:42:25;29.30;6.60
10231;DHT22;62604;49.432;8.680;2023-06-01T14:44:52;29.50;7.30
10231;DHT22;62604;49.432;8.680;2023-06-01T14:47:19;30.10;7.40
10231;DHT22;62604;49.432;8.680;2023-06-01T14:49:46;30.00;6.40
10231;DHT22;62604;49.432;8.680;2023-06-01T14:52:13;30.10;7.00
10231;DHT22;62604;49.432;8.680;2023-06-01T14:54:40;30.40;6.90
10231;DHT22;62604;49.432;8.680;2023-06-01T14:57:07;30.40;6.80
10231;DHT22;62604;49.432;8.680;2023-06-01T14:59:35;30.40;7.00
10231;DHT22;62604;49.432;8.680;2023-06-01T15:02:02;30.30;6.30
10231;DHT22;62604;49.432;8.680;2023-06-01T15:04:29;30.60;7.10
10231;DHT22;62604;49.432;8.680;2023-06-01T15:06:56;30.40;7.10
10231;DHT22;62604;49.432;8.680;2023-06-01T15:09:23;30.30;6.30
10231;DHT22;62604;49.432;8.680;2023-06-01T15:11:50;30.10;6.60
10231;DHT22;62604;49.432;8.680;2023-06-01T15:14:17;30.00;7.50
10231;DHT22;62604;49.432;8.680;2023-06-01T15:16:45;30.10;8.10
10231;DHT22;62604;49.432;8.680;2023-06-01T15:19:12;29.90;6.90
10231;DHT22;62604;49.432;8.680;2023-06-01T15:21:39;29.50;6.50
10231;DHT22;62604;49.432;8.680;2023-06-01T15:24:06;29.30;7.90
10231;DHT22;62604;49.432;8.680;2023-06-01T15:26:33;29.00;7.70
10231;DHT22;62604;49.432;8.680;2023-06-01T15:29:00;28.80;7.30
10231;DHT22;62604;49.432;8.680;2023-06-01T15:31:27;28.80;8.70
10231;DHT22;62604;49.432;8.680;2023-06-01T15:33:55;28.70;7.60
10231;DHT22;62604;49.432;8.680;2023-06-01T15:36:22;28.20;7.40
10231;DHT22;62604;49.432;8.680;2023-06-01T15:38:49;28.30;8.20
10231;DHT22;62604;49.432;8.680;2023-06-01T15:41:16;28.10;7.70
10231;DHT22;62604;49.432;8.680;2023-06-01T15:43:42;28.20;8.00
10231;DHT22;62604;49.432;8.680;2023-06-01T15:46:09;28.10;7.00
10231;DHT22;62604;49.432;8.680;2023-06-01T15:48:36;28.00;7.30
10231;DHT22;62604;49.432;8.680;2023-06-01T15:51:06;28.10;7.80
10231;DHT22;62604;49.432;8.680;2023-06-01T15:53:33;28.10;7.40
10231;DHT22;62604;49.432;8.680;2023-06-01T15:56:00;28.20;8.00